sensor_id;sensor_type;location;lat;lon;timestamp;temperature;humidity
29817;DHT22;16805;52.956;5.906;2023-09-07T00:02:18;22.30;99.90
29817;DHT22;16805;52.956;5.906;2023-09-07T00:04:46;22.30;99.90
29817;DHT22;16805;52.956;5.906;2023-09-07T00:07:27;22.30;99.90
29817;DHT22;16805;52.956;5.906;2023-09-07T00:09:54;22.30;99.90
29817;DHT22;16805;52.956;5.906;2023-09-07T00:12:20;22.20;99.90
29817;DHT22;16805;52.956;5.906;2023-09-07T00:15:09;22.20;99.90
29817;DHT22;16805;52.956;5.906;2023-09-07T00:17:39;22.20;99.90
29817;DHT22;16805;52.956;5.906;2023-09-07T00:20:16;22.20;99.90
29817;DHT22;16805;52.956;5.906;2023-09-07T00:22:48;22.10;99.90
29817;DHT22;16805;52.956;5.906;2023-09-07T00:25:33;22.10;99.90
29817;DHT22;16805;52.956;5.906;2023-09-07T00:28:00;22.10;99.90
29817;DHT22;16805;52.956;5.906;2023-09-07T00:30:33;22.10;99.90
29817;DHT22;16805;52.956;5.906;2023-09-07T00:33:02;22.00;99.90
29817;DHT22;16805;52.956;5.906;2023-09-07T00:35:34;22.00;99.90
29817;DHT22;16805;52.956;5.906;2023-09-07T00:38:02;21.90;99.90
29817;DHT22;16805;52.956;5.906;2023-09-07T00:40:34;21.90;99.90
29817;DHT22;16805;52.956;5.906;2023-09-07T00:43:12;21.90;99.90
29817;DHT22;16805;52.956;5.906;2023-09-07T00:45:42;21.90;99.90
29817;DHT22;16805;52.956;5.906;2023-09-07T00:48:12;21.80;99.90
29817;DHT22;16805;52.956;5.906;2023-09-07T00:50:42;21.80;99.90
29817;DHT22;16805;52.956;5.906;2023-09-07T00:53:10;21.80;99.90
29817;DHT22;16805;52.956;5.906;2023-09-07T00:55:53;21.80;99.90
29817;DHT22;16805;52.956;5.906;2023-09-07T00:58:25;21.80;99.90
29817;DHT22;16805;52.956;5.906;2023-09-07T01:00:57;21.70;99.90
29817;DHT22;16805;52.956;5.906;2023-09-07T01:03:29;21.70;99.90
29817;DHT22;16805;52.956;5.906;2023-09-07T01:06:31;21.70;99.90
29817;DHT22;16805;52.956;5.906;2023-09-07T01:09:19;21.60;99.90
29817;DHT22;16805;52.956;5.906;2023-09-07T01:12:15;21.60;99.90
29817;DHT22;16805;52.956;5.906;2023-09-07T01:15:06;21.60;99.90
29817;DHT22;16805;52.956;5.906;2023-09-07T01:17:35;21.50;99.90
29817;DHT22;16805;52.956;5.906;2023-09-07T01:20:06;21.50;99.90
29817;DHT22;16805;52.956;5.906;2023-09-07T01:22:41;21.50;99.90
29817;DHT22;16805;52.956;5.906;2023-09-07T01:25:08;21.50;99.90
29817;DHT22;16805;52.956;5.906;2023-09-07T01:27:37;21.40;99.90
29817;DHT22;16805;52.956;5.906;2023-09-07T01:30:10;21.40;99.90
29817;DHT22;16805;52.956;5.906;2023-09-07T01:32:44;21.40;99.90
29817;DHT22;16805;52.956;5.906;2023-09-07T01:35:25;21.30;99.90
29817;DHT22;16805;52.956;5.906;2023-09-07T01:37:53;21.30;99.90
29817;DHT22;16805;52.956;5.906;2023-09-07T01:40:21;21.30;99.90
29817;DHT22;16805;52.956;5.906;2023-09-07T01:42:50;21.20;99.90
29817;DHT22;16805;52.956;5.906;2023-09-07T01:45:18;21.20;99.90
29817;DHT22;16805;52.956;5.906;2023-09-07T01:47:58;21.10;99.90
29817;DHT22;16805;52.956;5.906;2023-09-07T01:50:27;21.10;99.90
29817;DHT22;16805;52.956;5.906;2023-09-07T01:53:17;21.10;99.90
29817;DHT22;16805;52.956;5.906;2023-09-07T01:55:46;21.10;99.90
29817;DHT22;16805;52.956;5.906;2023-09-07T01:58:14;21.00;99.90
29817;DHT22;16805;52.956;5.906;2023-09-07T02:00:41;21.00;99.90
29817;DHT22;16805;52.956;5.906;2023-09-07T02:03:08;21.00;99.90
29817;DHT22;16805;52.956;5.906;2023-09-07T02:05:36;20.90;99.90
29817;DHT22;16805;52.956;5.906;2023-09-07T02:08:02;20.90;99.90
29817;DHT22;16805;52.956;5.906;2023-09-07T02:10:30;20.80;99.90
29817;DHT22;16805;52.956;5.906;2023-09-07T02:12:57;20.80;99.90
29817;DHT22;16805;52.956;5.906;2023-09-07T02:15:26;20.80;99.90
29817;DHT22;16805;52.956;5.906;2023-09-07T02:17:56;20.80;99.90
29817;DHT22;16805;52.956;5.906;2023-09-07T02:20:30;20.70;99.90
29817;DHT22;16805;52.956;5.906;2023-09-07T02:23:03;20.70;99.90
29817;DHT22;16805;52.956;5.906;2023-09-07T02:25:30;20.60;99.90
29817;DHT22;16805;52.956;5.906;2023-09-07T02:27:56;20.70;99.90
29817;DHT22;16805;52.956;5.906;2023-09-07T02:30:23;20.60;99.90
29817;DHT22;16805;52.956;5.906;2023-09-07T02:32:51;20.60;99.90
29817;DHT22;16805;52.956;5.906;2023-09-07T02:35:17;20.60;99.90
29817;DHT22;16805;52.956;5.906;2023-09-07T02:37:43;20.60;99.90
29817;DHT22;16805;52.956;5.906;2023-09-07T02:40:10;20.60;99.90
29817;DHT22;16805;52.956;5.906;2023-09-07T02:42:39;20.50;99.90
29817;DHT22;16805;52.956;5.906;2023-09-07T02:45:10;20.50;99.90
29817;DHT22;16805;52.956;5.906;2023-09-07T02:47:39;20.50;99.90
29817;DHT22;16805;52.956;5.906;2023-09-07T02:50:07;20.40;99.90
29817;DHT22;16805;52.956;5.906;2023-09-07T02:52:41;20.40;99.90
29817;DHT22;16805;52.956;5.906;2023-09-07T02:55:07;20.40;99.90
29817;DHT22;16805;52.956;5.906;2023-09-07T02:57:36;20.40;99.90
29817;DHT22;16805;52.956;5.906;2023-09-07T03:00:06;20.40;99.90
29817;DHT22;16805;52.956;5.906;2023-09-07T03:02:39;20.40;99.90
29817;DHT22;16805;52.956;5.906;2023-09-07T03:05:08;20.40;99.90
29817;DHT22;16805;52.956;5.906;2023-09-07T03:07:35;20.30;99.90
29817;DHT22;16805;52.956;5.906;2023-09-07T03:10:06;20.30;99.90
29817;DHT22;16805;52.956;5.906;2023-09-07T03:12:33;20.30;99.90
29817;DHT22;16805;52.956;5.906;2023-09-07T03:15:01;20.30;99.90
29817;DHT22;16805;52.956;5.906;2023-09-07T03:17:36;20.20;99.90
29817;DHT22;16805;52.956;5.906;2023-09-07T03:20:06;20.20;99.90
29817;DHT22;16805;52.956;5.906;2023-09-07T03:22:42;20.20;99.90
29817;DHT22;16805;52.956;5.906;2023-09-07T03:25:18;20.20;99.90
29817;DHT22;16805;52.956;5.906;2023-09-07T03:27:46;20.20;99.90
29817;DHT22;16805;52.956;5.906;2023-09-07T03:30:16;20.20;99.90
29817;DHT22;16805;52.956;5.906;2023-09-07T03:32:45;20.20;99.90
29817;DHT22;16805;52.956;5.906;2023-09-07T03:35:16;20.20;99.90
29817;DHT22;16805;52.956;5.906;2023-09-07T03:37:44;20.20;99.90
29817;DHT22;16805;52.956;5.906;2023-09-07T03:40:13;20.20;99.90
29817;DHT22;16805;52.956;5.906;2023-09-07T03:42:43;20.20;99.90
29817;DHT22;16805;52.956;5.906;2023-09-07T03:45:13;20.20;99.90
29817;DHT22;16805;52.956;5.906;2023-09-07T03:47:43;20.10;99.90
29817;DHT22;16805;52.956;5.906;2023-09-07T03:50:11;20.10;99.90
29817;DHT22;16805;52.956;5.906;2023-09-07T03:52:43;20.10;99.90
29817;DHT22;16805;52.956;5.906;2023-09-07T03:55:11;20.00;99.90
29817;DHT22;16805;52.956;5.906;2023-09-07T03:57:39;20.00;99.90
29817;DHT22;16805;52.956;5.906;2023-09-07T04:00:07;20.00;99.90
29817;DHT22;16805;52.956;5.906;2023-09-07T04:02:36;20.00;99.90
29817;DHT22;16805;52.956;5.906;2023-09-07T04:05:03;19.90;99.90
29817;DHT22;16805;52.956;5.906;2023-09-07T04:07:34;19.90;99.90
29817;DHT22;16805;52.956;5.906;2023-09-07T04:10:03;19.80;99.90
29817;DHT22;16805;52.956;5.906;2023-09-07T04:12:35;19.80;99.90
29817;DHT22;16805;52.956;5.906;2023-09-07T04:15:02;19.70;99.90
29817;DHT22;16805;52.956;5.906;2023-09-07T04:17:28;19.60;99.90
29817;DHT22;16805;52.956;5.906;2023-09-07T04:19:54;19.60;99.90
29817;DHT22;16805;52.956;5.906;2023-09-07T04:22:19;19.60;99.90
29817;DHT22;16805;52.956;5.906;2023-09-07T04:24:47;19.50;99.90
29817;DHT22;16805;52.956;5.906;2023-09-07T04:27:14;19.40;99.90
29817;DHT22;16805;52.956;5.906;2023-09-07T04:29:40;19.30;99.90
29817;DHT22;16805;52.956;5.906;2023-09-07T04:32:05;19.30;99.90
29817;DHT22;16805;52.956;5.906;2023-09-07T04:34:32;19.30;99.90
29817;DHT22;16805;52.956;5.906;2023-09-07T04:36:58;19.20;99.90
29817;DHT22;16805;52.956;5.906;2023-09-07T04:39:24;19.20;99.90
29817;DHT22;16805;52.956;5.906;2023-09-07T04:41:49;19.20;99.90
29817;DHT22;16805;52.956;5.906;2023-09-07T04:44:16;19.10;99.90
29817;DHT22;16805;52.956;5.906;2023-09-07T04:46:41;19.10;99.90
29817;DHT22;16805;52.956;5.906;2023-09-07T04:49:07;19.00;99.90
29817;DHT22;16805;52.956;5.906;2023-09-07T04:51:33;19.00;99.90
29817;DHT22;16805;52.956;5.906;2023-09-07T04:53:59;19.00;99.90
29817;DHT22;16805;52.956;5.906;2023-09-07T04:56:25;18.90;99.90
29817;DHT22;16805;52.956;5.906;2023-09-07T04:58:51;18.90;99.90
29817;DHT22;16805;52.956;5.906;2023-09-07T05:01:17;18.90;99.90
29817;DHT22;16805;52.956;5.906;2023-09-07T05:03:42;18.90;99.90
29817;DHT22;16805;52.956;5.906;2023-09-07T05:06:08;18.90;99.90
29817;DHT22;16805;52.956;5.906;2023-09-07T05:08:34;18.80;99.90
29817;DHT22;16805;52.956;5.906;2023-09-07T05:11:01;18.90;99.90
29817;DHT22;16805;52.956;5.906;2023-09-07T05:13:28;18.80;99.90
29817;DHT22;16805;52.956;5.906;2023-09-07T05:15:55;18.90;99.90
29817;DHT22;16805;52.956;5.906;2023-09-07T05:18:22;18.80;99.90
29817;DHT22;16805;52.956;5.906;2023-09-07T05:20:48;18.90;99.90
29817;DHT22;16805;52.956;5.906;2023-09-07T05:23:20;18.90;99.90
29817;DHT22;16805;52.956;5.906;2023-09-07T05:25:51;19.00;99.90
29817;DHT22;16805;52.956;5.906;2023-09-07T05:28:21;19.00;99.90
29817;DHT22;16805;52.956;5.906;2023-09-07T05:30:47;19.00;99.90
29817;DHT22;16805;52.956;5.906;2023-09-07T05:33:15;19.00;99.90
29817;DHT22;16805;52.956;5.906;2023-09-07T05:35:41;19.00;99.90
29817;DHT22;16805;52.956;5.906;2023-09-07T05:38:08;19.00;99.90
29817;DHT22;16805;52.956;5.906;2023-09-07T05:40:38;19.00;99.90
29817;DHT22;16805;52.956;5.906;2023-09-07T05:43:05;19.10;99.90
29817;DHT22;16805;52.956;5.906;2023-09-07T05:45:33;19.20;99.90
29817;DHT22;16805;52.956;5.906;2023-09-07T05:48:00;19.30;99.90
29817;DHT22;16805;52.956;5.906;2023-09-07T05:50:26;19.50;99.90
29817;DHT22;16805;52.956;5.906;2023-09-07T05:52:53;19.70;99.90
29817;DHT22;16805;52.956;5.906;2023-09-07T05:55:18;19.80;99.90
29817;DHT22;16805;52.956;5.906;2023-09-07T05:57:44;20.00;99.90
29817;DHT22;16805;52.956;5.906;2023-09-07T06:00:11;20.20;99.90
29817;DHT22;16805;52.956;5.906;2023-09-07T06:02:38;20.40;99.90
29817;DHT22;16805;52.956;5.906;2023-09-07T06:05:04;20.50;99.90
29817;DHT22;16805;52.956;5.906;2023-09-07T06:07:30;20.70;99.90
29817;DHT22;16805;52.956;5.906;2023-09-07T06:09:56;20.90;99.90
29817;DHT22;16805;52.956;5.906;2023-09-07T06:12:24;21.10;99.90
29817;DHT22;16805;52.956;5.906;2023-09-07T06:14:50;21.30;99.90
29817;DHT22;16805;52.956;5.906;2023-09-07T06:17:16;21.40;99.90
29817;DHT22;16805;52.956;5.906;2023-09-07T06:19:42;21.60;99.90
29817;DHT22;16805;52.956;5.906;2023-09-07T06:22:08;21.70;99.90
29817;DHT22;16805;52.956;5.906;2023-09-07T06:24:33;21.90;99.90
29817;DHT22;16805;52.956;5.906;2023-09-07T06:27:01;22.00;99.90
29817;DHT22;16805;52.956;5.906;2023-09-07T06:29:32;22.10;99.90
29817;DHT22;16805;52.956;5.906;2023-09-07T06:31:58;22.30;99.90
29817;DHT22;16805;52.956;5.906;2023-09-07T06:34:26;22.40;99.90
29817;DHT22;16805;52.956;5.906;2023-09-07T06:36:52;22.60;99.90
29817;DHT22;16805;52.956;5.906;2023-09-07T06:39:18;22.70;99.90
29817;DHT22;16805;52.956;5.906;2023-09-07T06:41:47;22.90;99.90
29817;DHT22;16805;52.956;5.906;2023-09-07T06:44:12;23.00;99.90
29817;DHT22;16805;52.956;5.906;2023-09-07T06:46:39;23.10;99.90
29817;DHT22;16805;52.956;5.906;2023-09-07T06:49:05;23.30;99.90
29817;DHT22;16805;52.956;5.906;2023-09-07T06:51:31;23.40;99.90
29817;DHT22;16805;52.956;5.906;2023-09-07T06:54:03;23.50;99.90
29817;DHT22;16805;52.956;5.906;2023-09-07T06:56:29;23.60;99.90
29817;DHT22;16805;52.956;5.906;2023-09-07T06:58:56;23.80;99.90
29817;DHT22;16805;52.956;5.906;2023-09-07T07:01:23;23.90;99.90
29817;DHT22;16805;52.956;5.906;2023-09-07T07:03:49;24.10;99.90
29817;DHT22;16805;52.956;5.906;2023-09-07T07:06:15;24.30;99.90
29817;DHT22;16805;52.956;5.906;2023-09-07T07:08:40;24.40;99.90
29817;DHT22;16805;52.956;5.906;2023-09-07T07:11:06;24.50;99.90
29817;DHT22;16805;52.956;5.906;2023-09-07T07:13:33;24.60;99.90
29817;DHT22;16805;52.956;5.906;2023-09-07T07:15:59;24.70;99.90
29817;DHT22;16805;52.956;5.906;2023-09-07T07:18:24;24.70;99.90
29817;DHT22;16805;52.956;5.906;2023-09-07T07:20:52;24.80;99.90
29817;DHT22;16805;52.956;5.906;2023-09-07T07:23:17;24.80;99.90
29817;DHT22;16805;52.956;5.906;2023-09-07T07:25:43;25.00;99.90
29817;DHT22;16805;52.956;5.906;2023-09-07T07:28:12;25.10;99.90
29817;DHT22;16805;52.956;5.906;2023-09-07T07:30:39;25.10;99.90
29817;DHT22;16805;52.956;5.906;2023-09-07T07:33:08;25.10;99.90
29817;DHT22;16805;52.956;5.906;2023-09-07T07:35:37;25.20;99.90
29817;DHT22;16805;52.956;5.906;2023-09-07T07:38:04;25.40;99.90
29817;DHT22;16805;52.956;5.906;2023-09-07T07:40:30;25.50;99.90
29817;DHT22;16805;52.956;5.906;2023-09-07T07:42:56;25.50;99.90
29817;DHT22;16805;52.956;5.906;2023-09-07T07:45:22;25.60;99.90
29817;DHT22;16805;52.956;5.906;2023-09-07T07:47:51;25.70;99.90
29817;DHT22;16805;52.956;5.906;2023-09-07T07:50:18;25.80;99.90
29817;DHT22;16805;52.956;5.906;2023-09-07T07:52:44;25.90;99.90
29817;DHT22;16805;52.956;5.906;2023-09-07T07:55:10;26.00;99.90
29817;DHT22;16805;52.956;5.906;2023-09-07T07:57:36;26.10;99.90
29817;DHT22;16805;52.956;5.906;2023-09-07T08:00:06;26.20;99.90
29817;DHT22;16805;52.956;5.906;2023-09-07T08:02:33;26.20;99.90
29817;DHT22;16805;52.956;5.906;2023-09-07T08:04:59;26.30;99.90
29817;DHT22;16805;52.956;5.906;2023-09-07T08:07:25;26.30;99.90
29817;DHT22;16805;52.956;5.906;2023-09-07T08:09:52;26.40;99.90
29817;DHT22;16805;52.956;5.906;2023-09-07T08:12:17;26.50;99.90
29817;DHT22;16805;52.956;5.906;2023-09-07T08:14:44;26.60;99.90
29817;DHT22;16805;52.956;5.906;2023-09-07T08:17:10;26.70;99.90
29817;DHT22;16805;52.956;5.906;2023-09-07T08:19:37;26.80;99.90
29817;DHT22;16805;52.956;5.906;2023-09-07T08:22:04;27.00;99.90
29817;DHT22;16805;52.956;5.906;2023-09-07T08:24:53;27.00;99.90
29817;DHT22;16805;52.956;5.906;2023-09-07T08:27:40;27.10;99.90
29817;DHT22;16805;52.956;5.906;2023-09-07T08:30:16;27.10;99.90
29817;DHT22;16805;52.956;5.906;2023-09-07T08:35:21;27.20;99.90
29817;DHT22;16805;52.956;5.906;2023-09-07T08:37:52;27.30;99.90
29817;DHT22;16805;52.956;5.906;2023-09-07T08:40:19;27.20;99.90
29817;DHT22;16805;52.956;5.906;2023-09-07T08:42:55;27.30;99.90
29817;DHT22;16805;52.956;5.906;2023-09-07T08:45:26;27.20;99.90
29817;DHT22;16805;52.956;5.906;2023-09-07T08:47:56;27.20;99.90
29817;DHT22;16805;52.956;5.906;2023-09-07T08:50:23;27.20;99.90
29817;DHT22;16805;52.956;5.906;2023-09-07T08:52:52;27.30;99.90
29817;DHT22;16805;52.956;5.906;2023-09-07T08:55:19;27.40;99.90
29817;DHT22;16805;52.956;5.906;2023-09-07T08:57:46;27.50;99.90
29817;DHT22;16805;52.956;5.906;2023-09-07T09:00:12;27.60;99.90
29817;DHT22;16805;52.956;5.906;2023-09-07T09:02:42;27.70;99.90
29817;DHT22;16805;52.956;5.906;2023-09-07T09:05:09;27.80;99.90
29817;DHT22;16805;52.956;5.906;2023-09-07T09:07:37;27.90;99.90
29817;DHT22;16805;52.956;5.906;2023-09-07T09:10:09;27.90;99.90
29817;DHT22;16805;52.956;5.906;2023-09-07T09:12:45;27.90;99.90
29817;DHT22;16805;52.956;5.906;2023-09-07T09:15:12;27.90;99.90
29817;DHT22;16805;52.956;5.906;2023-09-07T09:17:38;27.80;99.90
29817;DHT22;16805;52.956;5.906;2023-09-07T09:20:04;27.80;99.90
29817;DHT22;16805;52.956;5.906;2023-09-07T09:22:35;27.90;99.90
29817;DHT22;16805;52.956;5.906;2023-09-07T09:25:03;28.00;99.90
29817;DHT22;16805;52.956;5.906;2023-09-07T09:27:30;28.10;99.90
29817;DHT22;16805;52.956;5.906;2023-09-07T09:29:56;28.10;99.90
29817;DHT22;16805;52.956;5.906;2023-09-07T09:32:24;28.10;99.90
29817;DHT22;16805;52.956;5.906;2023-09-07T09:34:50;28.10;99.90
29817;DHT22;16805;52.956;5.906;2023-09-07T09:37:17;28.10;99.90
29817;DHT22;16805;52.956;5.906;2023-09-07T09:39:49;28.10;99.90
29817;DHT22;16805;52.956;5.906;2023-09-07T09:42:18;28.20;99.90
29817;DHT22;16805;52.956;5.906;2023-09-07T09:44:45;28.30;99.90
29817;DHT22;16805;52.956;5.906;2023-09-07T09:47:12;28.40;99.90
29817;DHT22;16805;52.956;5.906;2023-09-07T09:49:41;28.50;99.90
29817;DHT22;16805;52.956;5.906;2023-09-07T09:52:09;28.50;99.90
29817;DHT22;16805;52.956;5.906;2023-09-07T09:54:38;28.60;99.90
29817;DHT22;16805;52.956;5.906;2023-09-07T09:57:06;28.60;99.90
29817;DHT22;16805;52.956;5.906;2023-09-07T09:59:41;28.60;99.90
29817;DHT22;16805;52.956;5.906;2023-09-07T10:02:27;28.70;99.90
29817;DHT22;16805;52.956;5.906;2023-09-07T10:04:53;28.60;99.90
29817;DHT22;16805;52.956;5.906;2023-09-07T10:07:19;28.70;99.90
29817;DHT22;16805;52.956;5.906;2023-09-07T10:09:45;28.60;99.90
29817;DHT22;16805;52.956;5.906;2023-09-07T10:12:12;28.50;99.90
29817;DHT22;16805;52.956;5.906;2023-09-07T10:14:41;28.50;99.90
29817;DHT22;16805;52.956;5.906;2023-09-07T10:17:09;28.50;99.90
29817;DHT22;16805;52.956;5.906;2023-09-07T10:19:36;28.40;99.90
29817;DHT22;16805;52.956;5.906;2023-09-07T10:22:07;28.50;99.90
29817;DHT22;16805;52.956;5.906;2023-09-07T10:24:37;28.60;99.90
29817;DHT22;16805;52.956;5.906;2023-09-07T10:27:06;28.70;99.90
29817;DHT22;16805;52.956;5.906;2023-09-07T10:29:46;28.70;99.90
29817;DHT22;16805;52.956;5.906;2023-09-07T10:32:15;28.70;99.90
29817;DHT22;16805;52.956;5.906;2023-09-07T10:34:42;28.70;99.90
29817;DHT22;16805;52.956;5.906;2023-09-07T10:37:11;28.70;99.90
29817;DHT22;16805;52.956;5.906;2023-09-07T10:39:43;28.80;99.90
29817;DHT22;16805;52.956;5.906;2023-09-07T10:42:23;28.80;99.90
29817;DHT22;16805;52.956;5.906;2023-09-07T10:44:52;28.80;99.90
29817;DHT22;16805;52.956;5.906;2023-09-07T10:47:27;28.80;99.90
29817;DHT22;16805;52.956;5.906;2023-09-07T10:52:42;28.90;99.90
29817;DHT22;16805;52.956;5.906;2023-09-07T10:55:15;28.90;99.90
29817;DHT22;16805;52.956;5.906;2023-09-07T10:58:03;29.00;99.90
29817;DHT22;16805;52.956;5.906;2023-09-07T11:00:28;28.90;99.90
29817;DHT22;16805;52.956;5.906;2023-09-07T11:02:54;28.90;99.90
29817;DHT22;16805;52.956;5.906;2023-09-07T11:05:20;28.90;99.90
29817;DHT22;16805;52.956;5.906;2023-09-07T11:07:46;28.90;99.90
29817;DHT22;16805;52.956;5.906;2023-09-07T11:10:12;28.90;99.90
29817;DHT22;16805;52.956;5.906;2023-09-07T11:12:39;29.00;99.90
29817;DHT22;16805;52.956;5.906;2023-09-07T11:15:08;29.00;99.90
29817;DHT22;16805;52.956;5.906;2023-09-07T11:17:37;29.00;99.90
29817;DHT22;16805;52.956;5.906;2023-09-07T11:20:06;29.00;99.90
29817;DHT22;16805;52.956;5.906;2023-09-07T11:22:33;28.90;99.90
29817;DHT22;16805;52.956;5.906;2023-09-07T11:25:02;28.90;99.90
29817;DHT22;16805;52.956;5.906;2023-09-07T11:27:30;28.90;99.90
29817;DHT22;16805;52.956;5.906;2023-09-07T11:29:56;28.80;99.90
29817;DHT22;16805;52.956;5.906;2023-09-07T11:32:23;28.80;99.90
29817;DHT22;16805;52.956;5.906;2023-09-07T11:34:52;28.80;99.90
29817;DHT22;16805;52.956;5.906;2023-09-07T11:37:24;28.90;99.90
29817;DHT22;16805;52.956;5.906;2023-09-07T11:39:50;28.90;99.90
29817;DHT22;16805;52.956;5.906;2023-09-07T11:42:16;28.90;99.90
29817;DHT22;16805;52.956;5.906;2023-09-07T11:44:41;28.90;99.90
29817;DHT22;16805;52.956;5.906;2023-09-07T11:47:07;28.90;99.90
29817;DHT22;16805;52.956;5.906;2023-09-07T11:49:33;28.90;99.90
29817;DHT22;16805;52.956;5.906;2023-09-07T11:51:59;28.80;99.90
29817;DHT22;16805;52.956;5.906;2023-09-07T11:54:25;28.80;99.90
29817;DHT22;16805;52.956;5.906;2023-09-07T11:56:50;28.80;99.90
29817;DHT22;16805;52.956;5.906;2023-09-07T11:59:16;28.80;99.90
29817;DHT22;16805;52.956;5.906;2023-09-07T12:01:44;28.80;99.90
29817;DHT22;16805;52.956;5.906;2023-09-07T12:04:10;28.80;99.90
29817;DHT22;16805;52.956;5.906;2023-09-07T12:06:36;28.80;99.90
29817;DHT22;16805;52.956;5.906;2023-09-07T12:09:06;28.80;99.90
29817;DHT22;16805;52.956;5.906;2023-09-07T12:11:32;28.80;99.90
29817;DHT22;16805;52.956;5.906;2023-09-07T12:13:59;28.80;99.90
29817;DHT22;16805;52.956;5.906;2023-09-07T12:16:28;28.80;99.90
29817;DHT22;16805;52.956;5.906;2023-09-07T12:18:54;28.70;99.90
29817;DHT22;16805;52.956;5.906;2023-09-07T12:21:20;28.70;99.90
29817;DHT22;16805;52.956;5.906;2023-09-07T12:23:46;28.70;99.90
29817;DHT22;16805;52.956;5.906;2023-09-07T12:26:13;28.70;99.90
29817;DHT22;16805;52.956;5.906;2023-09-07T12:28:40;28.70;99.90
29817;DHT22;16805;52.956;5.906;2023-09-07T12:31:06;28.70;99.90
29817;DHT22;16805;52.956;5.906;2023-09-07T12:33:31;28.70;99.90
29817;DHT22;16805;52.956;5.906;2023-09-07T12:35:58;28.80;99.90
29817;DHT22;16805;52.956;5.906;2023-09-07T12:38:25;28.80;99.90
29817;DHT22;16805;52.956;5.906;2023-09-07T12:40:54;28.80;99.90
29817;DHT22;16805;52.956;5.906;2023-09-07T12:43:20;28.80;99.90
29817;DHT22;16805;52.956;5.906;2023-09-07T12:45:46;28.80;99.90
29817;DHT22;16805;52.956;5.906;2023-09-07T12:48:12;28.80;99.90
29817;DHT22;16805;52.956;5.906;2023-09-07T12:50:38;28.80;99.90
29817;DHT22;16805;52.956;5.906;2023-09-07T12:53:11;28.80;99.90
29817;DHT22;16805;52.956;5.906;2023-09-07T12:55:41;28.80;99.90
29817;DHT22;16805;52.956;5.906;2023-09-07T12:58:07;28.80;99.90
29817;DHT22;16805;52.956;5.906;2023-09-07T13:00:33;28.80;99.90
29817;DHT22;16805;52.956;5.906;2023-09-07T13:02:58;28.70;99.90
29817;DHT22;16805;52.956;5.906;2023-09-07T13:05:24;28.80;99.90
29817;DHT22;16805;52.956;5.906;2023-09-07T13:07:50;28.80;99.90
29817;DHT22;16805;52.956;5.906;2023-09-07T13:10:16;28.80;99.90
29817;DHT22;16805;52.956;5.906;2023-09-07T13:12:42;28.80;99.90
29817;DHT22;16805;52.956;5.906;2023-09-07T13:15:08;28.80;99.90
29817;DHT22;16805;52.956;5.906;2023-09-07T13:17:34;28.80;99.90
29817;DHT22;16805;52.956;5.906;2023-09-07T13:19:59;28.80;99.90
29817;DHT22;16805;52.956;5.906;2023-09-07T13:22:25;28.90;99.90
29817;DHT22;16805;52.956;5.906;2023-09-07T13:24:51;28.90;99.90
29817;DHT22;16805;52.956;5.906;2023-09-07T13:27:17;28.90;99.90
29817;DHT22;16805;52.956;5.906;2023-09-07T13:29:42;28.90;99.90
29817;DHT22;16805;52.956;5.906;2023-09-07T13:32:08;28.90;99.90
29817;DHT22;16805;52.956;5.906;2023-09-07T13:34:52;28.90;99.90
29817;DHT22;16805;52.956;5.906;2023-09-07T13:37:18;28.90;99.90
29817;DHT22;16805;52.956;5.906;2023-09-07T13:39:49;28.90;99.90
29817;DHT22;16805;52.956;5.906;2023-09-07T13:42:38;28.90;99.90
29817;DHT22;16805;52.956;5.906;2023-09-07T13:45:06;28.90;99.90
29817;DHT22;16805;52.956;5.906;2023-09-07T13:47:32;28.90;99.90
29817;DHT22;16805;52.956;5.906;2023-09-07T13:49:57;28.90;99.90
29817;DHT22;16805;52.956;5.906;2023-09-07T13:52:25;28.90;99.90
29817;DHT22;16805;52.956;5.906;2023-09-07T13:54:51;28.90;99.90
29817;DHT22;16805;52.956;5.906;2023-09-07T13:57:17;28.90;99.90
29817;DHT22;16805;52.956;5.906;2023-09-07T13:59:44;28.90;99.90
29817;DHT22;16805;52.956;5.906;2023-09-07T14:02:13;28.90;99.90
29817;DHT22;16805;52.956;5.906;2023-09-07T14:04:39;28.90;99.90
29817;DHT22;16805;52.956;5.906;2023-09-07T14:07:07;28.80;99.90
29817;DHT22;16805;52.956;5.906;2023-09-07T14:09:36;28.90;99.90
29817;DHT22;16805;52.956;5.906;2023-09-07T14:12:04;28.90;99.90
29817;DHT22;16805;52.956;5.906;2023-09-07T14:14:49;28.90;99.90
29817;DHT22;16805;52.956;5.906;2023-09-07T14:17:16;28.80;99.90
29817;DHT22;16805;52.956;5.906;2023-09-07T14:19:42;28.80;99.90
29817;DHT22;16805;52.956;5.906;2023-09-07T14:22:07;28.80;99.90
29817;DHT22;16805;52.956;5.906;2023-09-07T14:24:33;28.80;99.90
29817;DHT22;16805;52.956;5.906;2023-09-07T14:26:59;28.80;99.90
29817;DHT22;16805;52.956;5.906;2023-09-07T14:29:24;28.80;99.90
29817;DHT22;16805;52.956;5.906;2023-09-07T14:31:57;28.80;99.90
29817;DHT22;16805;52.956;5.906;2023-09-07T14:34:25;28.80;99.90
29817;DHT22;16805;52.956;5.906;2023-09-07T14:36:51;28.80;99.90
29817;DHT22;16805;52.956;5.906;2023-09-07T14:39:17;28.80;99.90
29817;DHT22;16805;52.956;5.906;2023-09-07T14:41:48;28.80;99.90
29817;DHT22;16805;52.956;5.906;2023-09-07T14:44:15;28.80;99.90
29817;DHT22;16805;52.956;5.906;2023-09-07T14:46:41;28.80;99.90
29817;DHT22;16805;52.956;5.906;2023-09-07T14:49:16;28.80;99.90
29817;DHT22;16805;52.956;5.906;2023-09-07T14:51:46;28.80;99.90
29817;DHT22;16805;52.956;5.906;2023-09-07T14:54:12;28.80;99.90
29817;DHT22;16805;52.956;5.906;2023-09-07T14:56:39;28.80;99.90
29817;DHT22;16805;52.956;5.906;2023-09-07T14:59:06;28.80;99.90
29817;DHT22;16805;52.956;5.906;2023-09-07T15:01:32;28.80;99.90
29817;DHT22;16805;52.956;5.906;2023-09-07T15:03:59;28.80;99.90
29817;DHT22;16805;52.956;5.906;2023-09-07T15:06:35;28.80;99.90
29817;DHT22;16805;52.956;5.906;2023-09-07T15:09:03;28.80;99.90
29817;DHT22;16805;52.956;5.906;2023-09-07T15:11:29;28.80;99.90
29817;DHT22;16805;52.956;5.906;2023-09-07T15:13:56;28.80;99.90
29817;DHT22;16805;52.956;5.906;2023-09-07T15:16:21;28.80;99.90
29817;DHT22;16805;52.956;5.906;2023-09-07T15:18:50;28.80;99.90
29817;DHT22;16805;52.956;5.906;2023-09-07T15:21:17;28.80;99.90
29817;DHT22;16805;52.956;5.906;2023-09-07T15:23:44;28.80;99.90
29817;DHT22;16805;52.956;5.906;2023-09-07T15:27:12;28.80;99.90
29817;DHT22;16805;52.956;5.906;2023-09-07T15:30:15;28.80;99.90
29817;DHT22;16805;52.956;5.906;2023-09-07T15:33:27;28.80;99.90
29817;DHT22;16805;52.956;5.906;2023-09-07T15:36:37;28.80;99.90
29817;DHT22;16805;52.956;5.906;2023-09-07T15:39:04;28.80;99.90
29817;DHT22;16805;52.956;5.906;2023-09-07T15:41:31;28.80;99.90
29817;DHT22;16805;52.956;5.906;2023-09-07T15:44:06;28.70;99.90
29817;DHT22;16805;52.956;5.906;2023-09-07T15:46:39;28.70;99.90
29817;DHT22;16805;52.956;5.906;2023-09-07T15:49:09;28.70;99.90